createdAt,value
2023-04-28T00:02:10.616Z,36.39
2023-04-28T00:04:42.764Z,36.35
2023-04-28T00:07:13.498Z,35.96
2023-04-28T00:09:44.437Z,36.26
2023-04-28T00:12:14.978Z,35.99
2023-04-28T00:14:45.527Z,35.80
2023-04-28T00:17:16.110Z,35.83
2023-04-28T00:19:48.155Z,35.98
2023-04-28T00:22:18.708Z,34.87
2023-04-28T00:24:49.458Z,35.10
2023-04-28T00:27:19.870Z,35.17
2023-04-28T00:29:50.414Z,35.08
2023-04-28T00:32:21.348Z,35.74
2023-04-28T00:34:54.165Z,35.65
2023-04-28T00:37:24.715Z,35.19
2023-04-28T00:40:04.473Z,34.82
2023-04-28T00:42:35.309Z,35.76
2023-04-28T00:45:07.010Z,34.54
2023-04-28T00:47:40.118Z,35.36
2023-04-28T00:50:14.360Z,34.78
2023-04-28T00:52:46.037Z,35.38
2023-04-28T00:55:19.139Z,36.29
2023-04-28T00:57:49.916Z,37.32
2023-04-28T01:00:20.763Z,38.30
2023-04-28T01:02:52.767Z,33.81
2023-04-28T01:05:25.982Z,34.80
2023-04-28T01:07:56.669Z,34.72
2023-04-28T01:10:30.186Z,35.59
2023-04-28T01:13:00.742Z,36.85
2023-04-28T01:15:31.955Z,36.66
2023-04-28T01:18:03.181Z,36.87
2023-04-28T01:20:35.333Z,35.11
2023-04-28T01:23:05.838Z,35.66
2023-04-28T01:25:37.908Z,34.75
2023-04-28T01:28:08.631Z,33.56
2023-04-28T01:30:39.404Z,35.07
2023-04-28T01:33:10.017Z,33.15
2023-04-28T01:35:40.526Z,32.37
2023-04-28T01:38:11.145Z,34.17
2023-04-28T01:40:43.776Z,33.72
2023-04-28T01:43:14.263Z,34.70
2023-04-28T01:45:45.168Z,33.08
2023-04-28T01:48:15.612Z,33.09
2023-04-28T01:50:46.126Z,33.85
2023-04-28T01:53:16.887Z,34.42
2023-04-28T01:55:49.394Z,34.76
2023-04-28T01:58:19.953Z,34.53
2023-04-28T02:00:50.785Z,34.27
2023-04-28T02:03:21.807Z,34.93
2023-04-28T02:05:52.550Z,35.75
2023-04-28T02:08:23.158Z,35.20
2023-04-28T02:10:55.744Z,35.99
2023-04-28T02:13:26.344Z,36.51
2023-04-28T02:15:57.069Z,35.65
2023-04-28T02:18:27.598Z,35.43
2023-04-28T02:20:58.124Z,35.62
2023-04-28T02:23:28.648Z,36.55
2023-04-28T02:26:06.139Z,35.10
2023-04-28T02:28:36.600Z,34.87
2023-04-28T02:31:08.777Z,36.22
2023-04-28T02:33:39.834Z,35.92
2023-04-28T02:36:11.660Z,35.85
2023-04-28T02:38:42.790Z,34.98
2023-04-28T02:41:15.877Z,36.51
2023-04-28T02:43:46.413Z,35.52
2023-04-28T02:46:16.986Z,35.18
2023-04-28T02:48:47.540Z,33.92
2023-04-28T02:51:18.220Z,33.79
2023-04-28T02:53:48.696Z,34.84
2023-04-28T02:56:20.847Z,35.38
2023-04-28T02:58:51.417Z,34.70
2023-04-28T03:01:21.929Z,34.39
2023-04-28T03:03:52.541Z,33.49
2023-04-28T03:06:23.483Z,32.20
2023-04-28T03:08:53.903Z,32.54
2023-04-28T03:11:26.071Z,34.25
2023-04-28T03:13:59.239Z,33.55
2023-04-28T03:16:30.349Z,33.96
2023-04-28T03:19:01.038Z,33.89
2023-04-28T03:21:31.551Z,34.02
2023-04-28T03:24:03.440Z,33.79
2023-04-28T03:26:38.106Z,34.19
2023-04-28T03:29:08.606Z,34.23
2023-04-28T03:31:39.061Z,32.82
2023-04-28T03:34:09.780Z,32.44
2023-04-28T03:36:40.281Z,32.70
2023-04-28T03:39:10.829Z,32.52
2023-04-28T03:41:43.089Z,33.26
2023-04-28T03:44:13.535Z,29.40
2023-04-28T03:46:44.152Z,30.24
2023-04-28T03:49:14.649Z,29.82
2023-04-28T03:51:45.116Z,30.10
2023-04-28T03:54:15.875Z,30.26
2023-04-28T03:56:49.083Z,29.72
2023-04-28T03:59:19.545Z,29.36
2023-04-28T04:01:49.958Z,29.73
2023-04-28T04:04:20.831Z,29.89
2023-04-28T04:06:51.893Z,29.81
2023-04-28T04:09:22.330Z,30.69
2023-04-28T04:11:54.397Z,29.82
2023-04-28T04:14:24.847Z,29.47
2023-04-28T04:16:56.326Z,28.52
2023-04-28T04:19:27.631Z,29.64
2023-04-28T04:21:58.121Z,28.93
2023-04-28T04:24:28.666Z,29.42
2023-04-28T04:27:01.023Z,29.87
2023-04-28T04:29:31.416Z,28.68
2023-04-28T04:32:01.856Z,27.85
2023-04-28T04:34:32.371Z,29.10
2023-04-28T04:37:02.814Z,29.02
2023-04-28T04:39:33.410Z,29.11
2023-04-28T04:42:16.753Z,30.65
2023-04-28T04:44:47.529Z,31.95
2023-04-28T04:47:17.980Z,31.17
2023-04-28T04:49:48.397Z,31.11
2023-04-28T04:52:18.956Z,30.11
2023-04-28T04:54:49.600Z,28.78
2023-04-28T04:57:21.963Z,29.63
2023-04-28T04:59:52.377Z,29.75
2023-04-28T05:02:22.958Z,31.12
2023-04-28T05:04:54.573Z,31.42
2023-04-28T05:07:29.501Z,30.60
2023-04-28T05:10:00.001Z,30.47
2023-04-28T05:12:32.098Z,30.58
2023-04-28T05:15:02.497Z,29.74
2023-04-28T05:17:33.129Z,30.78
2023-04-28T05:20:03.589Z,30.57
2023-04-28T05:22:34.043Z,30.19
2023-04-28T05:25:04.553Z,30.20
2023-04-28T05:27:38.466Z,27.94
2023-04-28T05:30:11.071Z,28.62
2023-04-28T05:32:41.576Z,28.65
2023-04-28T05:35:12.435Z,27.37
2023-04-28T05:37:44.396Z,26.61
2023-04-28T05:40:15.100Z,25.65
2023-04-28T05:42:47.126Z,26.17
2023-04-28T05:45:17.690Z,26.90
2023-04-28T05:47:48.252Z,25.94
2023-04-28T05:50:18.671Z,24.12
2023-04-28T05:52:49.287Z,25.58
2023-04-28T05:55:20.005Z,24.73
2023-04-28T05:57:56.346Z,25.02
2023-04-28T06:00:26.937Z,26.63
2023-04-28T06:02:57.591Z,26.75
2023-04-28T06:05:28.567Z,26.20
2023-04-28T06:07:59.135Z,27.04
2023-04-28T06:10:29.649Z,27.43
2023-04-28T06:13:01.787Z,28.31
2023-04-28T06:15:32.776Z,29.35
2023-04-28T06:18:03.778Z,28.33
2023-04-28T06:20:34.197Z,31.06
2023-04-28T06:23:05.715Z,30.93
2023-04-28T06:25:36.161Z,31.65
2023-04-28T06:28:08.838Z,31.37
2023-04-28T06:30:39.321Z,31.46
2023-04-28T06:33:09.979Z,30.60
2023-04-28T06:35:40.794Z,31.25
2023-04-28T06:38:11.267Z,31.32
2023-04-28T06:40:42.240Z,31.70
2023-04-28T06:43:14.459Z,32.30
2023-04-28T06:45:44.858Z,32.08
2023-04-28T06:48:15.535Z,31.29
2023-04-28T06:50:46.057Z,31.72
2023-04-28T06:53:16.493Z,31.52
2023-04-28T06:55:46.934Z,32.06
2023-04-28T06:58:19.127Z,31.66
2023-04-28T07:00:49.837Z,31.48
2023-04-28T07:03:20.509Z,31.82
2023-04-28T07:05:51.158Z,30.46
2023-04-28T07:08:21.556Z,30.56
2023-04-28T07:10:52.156Z,30.60
2023-04-28T07:13:24.207Z,31.72
2023-04-28T07:15:54.754Z,31.68
2023-04-28T07:18:25.271Z,30.21
2023-04-28T07:20:55.924Z,30.95
2023-04-28T07:23:26.404Z,31.12
2023-04-28T07:25:57.053Z,31.23
2023-04-28T07:28:29.461Z,30.68
2023-04-28T07:30:59.953Z,31.18
2023-04-28T07:33:30.443Z,31.84
2023-04-28T07:36:01.046Z,32.17
2023-04-28T07:38:31.486Z,33.09
2023-04-28T07:41:01.871Z,31.64
2023-04-28T07:43:34.945Z,32.02
2023-04-28T07:46:05.540Z,32.08
2023-04-28T07:48:36.507Z,31.55
2023-04-28T07:51:07.111Z,31.46
2023-04-28T07:53:37.669Z,30.81
2023-04-28T07:56:08.470Z,30.18
2023-04-28T07:58:40.507Z,31.11
2023-04-28T08:01:11.102Z,30.53
2023-04-28T08:03:41.682Z,31.33
2023-04-28T08:06:12.243Z,31.98
2023-04-28T08:08:42.993Z,32.75
2023-04-28T08:11:13.491Z,32.74
2023-04-28T08:13:45.623Z,33.04
2023-04-28T08:16:16.275Z,34.19
2023-04-28T08:18:46.914Z,33.59
2023-04-28T08:21:17.342Z,33.74
2023-04-28T08:23:47.858Z,34.81
2023-04-28T08:26:18.326Z,34.74
2023-04-28T08:28:50.649Z,35.01
2023-04-28T08:31:21.237Z,34.82
2023-04-28T08:33:52.081Z,34.66
2023-04-28T08:36:22.525Z,34.98
2023-04-28T08:38:53.633Z,35.34
2023-04-28T08:41:24.112Z,35.69
2023-04-28T08:43:56.401Z,36.24
2023-04-28T08:46:30.176Z,35.68
2023-04-28T08:49:04.016Z,36.12
2023-04-28T08:51:40.090Z,36.60
2023-04-28T08:54:25.435Z,36.79
2023-04-28T08:56:58.381Z,38.05
2023-04-28T08:59:30.640Z,39.00
2023-04-28T09:02:04.330Z,39.74
2023-04-28T09:04:34.981Z,40.43
2023-04-28T09:07:05.589Z,40.91
2023-04-28T09:09:37.905Z,41.32
2023-04-28T09:12:10.051Z,41.51
2023-04-28T09:14:43.338Z,42.44
2023-04-28T09:17:17.316Z,42.90
2023-04-28T09:19:47.841Z,43.61
2023-04-28T09:24:57.810Z,45.28
2023-04-28T09:27:31.068Z,45.69
2023-04-28T09:30:04.765Z,46.77
2023-04-28T09:32:35.378Z,47.01
2023-04-28T09:35:09.957Z,47.41
2023-04-28T09:37:40.550Z,48.04
2023-04-28T09:40:13.241Z,49.17
2023-04-28T09:42:46.001Z,49.37
2023-04-28T09:45:21.606Z,49.32
2023-04-28T09:47:52.203Z,49.52
2023-04-28T09:50:22.895Z,48.60
2023-04-28T09:53:00.052Z,47.84
2023-04-28T09:55:33.073Z,47.97
2023-04-28T09:58:10.397Z,47.61
2023-04-28T10:00:44.715Z,47.78
2023-04-28T10:03:17.480Z,48.39
2023-04-28T10:05:48.949Z,48.59
2023-04-28T10:08:20.703Z,49.51
2023-04-28T10:10:54.049Z,50.09
2023-04-28T10:13:25.583Z,50.27
2023-04-28T10:15:59.493Z,49.97
2023-04-28T10:18:33.224Z,49.80
2023-04-28T10:21:11.777Z,50.53
2023-04-28T10:27:17.986Z,51.45
2023-04-28T10:29:48.795Z,52.63
2023-04-28T10:32:23.098Z,52.89
2023-04-28T10:34:53.746Z,53.10
2023-04-28T10:37:44.436Z,53.03
2023-04-28T10:40:36.893Z,53.73
2023-04-28T10:43:08.127Z,53.66
2023-04-28T10:46:07.407Z,53.73
2023-04-28T10:49:02.778Z,53.97
2023-04-28T10:51:34.472Z,54.42
2023-04-28T10:54:18.731Z,55.25
2023-04-28T10:57:23.912Z,55.57
2023-04-28T10:59:57.322Z,56.14
2023-04-28T11:02:45.071Z,56.45
2023-04-28T11:05:21.843Z,57.18
2023-04-28T11:08:31.478Z,57.54
2023-04-28T11:11:21.804Z,58.39
2023-04-28T11:13:53.721Z,58.92
2023-04-28T11:16:28.820Z,59.18
2023-04-28T11:19:05.446Z,59.28
2023-04-28T11:21:37.912Z,60.12
2023-04-28T11:24:13.504Z,60.27
2023-04-28T11:26:48.684Z,60.60
2023-04-28T11:29:22.130Z,60.59
2023-04-28T11:31:58.348Z,61.43
2023-04-28T11:34:29.630Z,61.99
2023-04-28T11:37:06.773Z,62.63
2023-04-28T11:39:47.325Z,62.93
2023-04-28T11:42:20.210Z,63.10
2023-04-28T11:44:56.569Z,63.79
2023-04-28T11:47:33.982Z,64.17
2023-04-28T11:50:10.373Z,64.98
2023-04-28T11:52:53.249Z,65.27
2023-04-28T11:55:25.720Z,65.59
2023-04-28T11:58:24.686Z,65.87
2023-04-28T12:01:10.171Z,65.74
2023-04-28T12:03:52.401Z,65.94
2023-04-28T12:06:25.890Z,66.03
2023-04-28T12:09:05.261Z,66.20
2023-04-28T12:11:35.894Z,66.23
2023-04-28T12:14:10.951Z,66.46
2023-04-28T12:16:44.881Z,67.17
2023-04-28T12:19:16.925Z,67.41
2023-04-28T12:22:04.607Z,68.00
2023-04-28T12:24:39.474Z,68.44
2023-04-28T12:27:22.482Z,68.69
2023-04-28T12:29:54.177Z,68.80
2023-04-28T12:32:41.199Z,69.28
2023-04-28T12:35:15.408Z,69.80
2023-04-28T12:37:45.893Z,69.85
2023-04-28T12:40:18.108Z,69.65
2023-04-28T12:42:48.673Z,70.35
2023-04-28T12:45:19.179Z,70.13
2023-04-28T12:47:49.659Z,69.92
2023-04-28T12:50:23.107Z,70.43
2023-04-28T12:53:01.057Z,69.44
2023-04-28T12:55:39.991Z,68.66
2023-04-28T12:58:10.738Z,68.24
2023-04-28T13:00:46.779Z,68.32
2023-04-28T13:03:18.174Z,68.06
2023-04-28T13:05:48.717Z,68.19
2023-04-28T13:08:19.278Z,68.37
2023-04-28T13:10:51.862Z,68.96
2023-04-28T13:13:22.415Z,69.41
2023-04-28T13:15:53.644Z,69.63
2023-04-28T13:18:24.396Z,69.77
2023-04-28T13:20:54.961Z,70.35
2023-04-28T13:23:25.665Z,69.83
2023-04-28T13:25:57.859Z,69.83
2023-04-28T13:28:28.438Z,70.15
2023-04-28T13:30:59.030Z,70.61
2023-04-28T13:33:32.153Z,69.90
2023-04-28T13:36:02.889Z,70.15
2023-04-28T13:38:33.383Z,70.31
2023-04-28T13:41:05.855Z,71.38
2023-04-28T13:43:37.030Z,70.91
2023-04-28T13:46:09.557Z,70.93
2023-04-28T13:48:40.858Z,71.00
2023-04-28T13:51:16.731Z,70.97
2023-04-28T13:57:05.968Z,71.26
2023-04-28T13:59:42.942Z,72.08
2023-04-28T14:02:16.329Z,71.97
2023-04-28T14:04:51.791Z,71.78
2023-04-28T14:07:37.379Z,72.28
2023-04-28T14:10:10.754Z,72.65
2023-04-28T14:12:43.112Z,73.51
2023-04-28T14:15:16.940Z,73.63
2023-04-28T14:17:47.407Z,74.13
2023-04-28T14:20:34.371Z,74.60
2023-04-28T14:23:32.636Z,75.00
2023-04-28T14:26:03.248Z,75.51
2023-04-28T14:28:46.014Z,75.50
2023-04-28T14:31:21.677Z,75.91
2023-04-28T14:33:54.851Z,75.30
2023-04-28T14:36:25.365Z,75.30
2023-04-28T14:39:02.402Z,75.56
2023-04-28T14:41:48.518Z,75.84
2023-04-28T14:44:21.991Z,76.37
2023-04-28T14:46:56.754Z,76.66
2023-04-28T14:49:30.980Z,76.94
2023-04-28T14:52:07.396Z,76.82
2023-04-28T14:54:40.013Z,76.68
2023-04-28T14:57:13.409Z,76.85
2023-04-28T15:03:35.824Z,77.49
2023-04-28T15:06:06.713Z,77.71
2023-04-28T15:08:49.223Z,77.74
2023-04-28T15:11:22.582Z,77.90
2023-04-28T15:13:54.611Z,78.38
2023-04-28T15:16:27.308Z,78.31
2023-04-28T15:19:03.692Z,77.81
2023-04-28T15:21:34.647Z,77.59
2023-04-28T15:24:09.410Z,77.65
2023-04-28T15:26:43.908Z,77.60
2023-04-28T15:29:21.807Z,77.76
2023-04-28T15:32:21.377Z,78.42
2023-04-28T15:34:58.625Z,77.85
2023-04-28T15:39:06.445Z,78.01
2023-04-28T15:41:37.275Z,78.49
2023-04-28T15:44:13.766Z,78.68
2023-04-28T15:46:45.444Z,78.59
2023-04-28T15:49:19.169Z,78.38
2023-04-28T15:51:51.276Z,78.75
2023-04-28T15:54:37.938Z,78.97
2023-04-28T15:57:18.593Z,79.46
2023-04-28T15:59:49.184Z,79.01
2023-04-28T16:02:22.472Z,79.18
2023-04-28T16:04:56.002Z,79.33
2023-04-28T16:07:28.244Z,79.44
2023-04-28T16:10:01.784Z,79.83
2023-04-28T16:12:37.530Z,80.25
2023-04-28T16:15:10.395Z,80.64
2023-04-28T16:17:42.620Z,80.45
2023-04-28T16:20:16.791Z,80.71
2023-04-28T16:22:56.428Z,81.19
2023-04-28T16:25:30.534Z,82.08
2023-04-28T16:28:05.913Z,82.44
2023-04-28T16:30:39.508Z,82.69
2023-04-28T16:33:10.561Z,82.30
2023-04-28T16:35:44.706Z,82.34
2023-04-28T16:38:31.443Z,82.52
2023-04-28T16:41:04.679Z,82.44
2023-04-28T16:43:37.151Z,83.13
2023-04-28T16:46:56.807Z,84.04
2023-04-28T16:49:27.705Z,84.43
2023-04-28T16:52:04.753Z,84.34
2023-04-28T16:54:49.258Z,84.11
2023-04-28T16:57:37.907Z,84.27
2023-04-28T17:00:12.464Z,84.93
2023-04-28T17:02:45.004Z,84.55
2023-04-28T17:05:15.850Z,84.03
2023-04-28T17:07:51.163Z,84.02
2023-04-28T17:10:28.559Z,83.83
2023-04-28T17:13:01.363Z,84.29
2023-04-28T17:15:35.960Z,84.81
2023-04-28T17:18:10.661Z,84.85
2023-04-28T17:20:43.366Z,84.55
2023-04-28T17:23:14.596Z,84.44
2023-04-28T17:25:46.738Z,84.35
2023-04-28T17:28:19.612Z,84.16
2023-04-28T17:35:23.522Z,82.74
2023-04-28T17:37:56.719Z,82.45
2023-04-28T17:40:27.701Z,81.92
2023-04-28T17:42:59.722Z,81.27
2023-04-28T17:45:32.812Z,81.71
2023-04-28T17:48:06.023Z,81.69
2023-04-28T17:50:36.451Z,81.79
2023-04-28T17:53:07.223Z,82.48
2023-04-28T17:55:37.635Z,82.43
2023-04-28T17:58:12.875Z,82.37
2023-04-28T18:00:45.493Z,82.05
2023-04-28T18:03:16.010Z,81.52
2023-04-28T18:05:46.547Z,81.02
2023-04-28T18:08:16.983Z,81.26
2023-04-28T18:10:47.374Z,81.35
2023-04-28T18:13:19.475Z,81.40
2023-04-28T18:15:50.110Z,81.09
2023-04-28T18:18:20.756Z,81.02
2023-04-28T18:20:51.201Z,81.02
2023-04-28T18:23:22.144Z,80.72
2023-04-28T18:25:52.659Z,80.68
2023-04-28T18:28:24.854Z,80.89
2023-04-28T18:30:53.569Z,80.62
2023-04-28T18:33:26.688Z,80.83
2023-04-28T18:36:02.810Z,80.93
2023-04-28T18:38:35.290Z,80.85
2023-04-28T18:41:14.707Z,80.64
2023-04-28T18:43:47.379Z,80.40
2023-04-28T18:46:18.608Z,79.95
2023-04-28T18:48:49.954Z,79.64
2023-04-28T18:51:20.369Z,79.68
2023-04-28T18:53:50.736Z,79.68
2023-04-28T18:56:21.860Z,79.66
2023-04-28T18:58:53.813Z,79.91
2023-04-28T19:01:25.546Z,80.55
2023-04-28T19:03:56.167Z,80.88
2023-04-28T19:06:26.763Z,81.25
2023-04-28T19:08:57.252Z,81.61
2023-04-28T19:11:28.097Z,81.97
2023-04-28T19:14:00.566Z,81.84
2023-04-28T19:16:31.097Z,81.92
2023-04-28T19:19:01.528Z,81.77
2023-04-28T19:21:32.033Z,81.59
2023-04-28T19:24:02.506Z,81.83
2023-04-28T19:26:33.019Z,81.68
2023-04-28T19:29:08.047Z,81.61
2023-04-28T19:31:38.390Z,81.71
2023-04-28T19:34:08.734Z,81.44
2023-04-28T19:36:39.308Z,81.16
2023-04-28T19:39:10.210Z,80.19
2023-04-28T19:41:40.541Z,79.76
2023-04-28T19:44:12.795Z,79.07
2023-04-28T19:46:45.674Z,78.64
2023-04-28T19:49:16.733Z,77.78
2023-04-28T19:51:47.156Z,76.92
2023-04-28T19:54:17.570Z,76.65
2023-04-28T19:56:48.003Z,76.04
2023-04-28T19:59:20.382Z,75.74
2023-04-28T20:01:52.710Z,76.70
2023-04-28T20:04:23.383Z,76.96
2023-04-28T20:06:54.493Z,76.20
2023-04-28T20:09:25.502Z,75.58
2023-04-28T20:11:56.894Z,75.20
2023-04-28T20:14:28.951Z,74.71
2023-04-28T20:16:59.664Z,74.69
2023-04-28T20:19:30.137Z,73.73
2023-04-28T20:22:00.683Z,73.80
2023-04-28T20:24:31.097Z,73.72
2023-04-28T20:27:01.583Z,73.94
2023-04-28T20:29:35.792Z,73.71
2023-04-28T20:32:06.783Z,73.70
2023-04-28T20:34:39.342Z,74.19
2023-04-28T20:37:09.760Z,74.04
2023-04-28T20:39:40.287Z,73.90
2023-04-28T20:42:10.946Z,74.12
2023-04-28T20:44:43.440Z,74.34
2023-04-28T20:47:13.985Z,74.34
2023-04-28T20:49:44.729Z,74.18
2023-04-28T20:52:15.644Z,74.13
2023-04-28T20:54:46.606Z,73.99
2023-04-28T20:57:17.097Z,74.07
2023-04-28T20:59:49.485Z,74.59
2023-04-28T21:02:20.214Z,74.19
2023-04-28T21:04:50.919Z,74.24
2023-04-28T21:07:21.434Z,74.23
2023-04-28T21:09:52.967Z,74.69
2023-04-28T21:12:24.175Z,74.61
2023-04-28T21:14:56.226Z,74.95
2023-04-28T21:17:26.731Z,75.57
2023-04-28T21:19:58.204Z,75.13
2023-04-28T21:22:30.676Z,75.29
2023-04-28T21:25:01.417Z,75.77
2023-04-28T21:27:31.972Z,76.06
2023-04-28T21:30:04.114Z,76.25
2023-04-28T21:32:34.669Z,76.33
2023-04-28T21:35:05.406Z,76.56
2023-04-28T21:37:35.910Z,77.36
2023-04-28T21:40:06.867Z,77.93
2023-04-28T21:42:37.920Z,78.78
2023-04-28T21:45:13.901Z,79.10
2023-04-28T21:47:44.462Z,80.02
2023-04-28T21:50:15.558Z,80.68
2023-04-28T21:52:46.023Z,81.39
2023-04-28T21:55:16.575Z,81.86
2023-04-28T21:57:52.474Z,82.91
2023-04-28T22:00:28.964Z,83.11
2023-04-28T22:03:01.504Z,83.07
2023-04-28T22:05:34.465Z,82.83
2023-04-28T22:08:05.212Z,83.14
2023-04-28T22:10:38.927Z,83.53
2023-04-28T22:13:09.889Z,83.76
2023-04-28T22:15:42.593Z,84.40
2023-04-28T22:18:14.010Z,84.65
2023-04-28T22:20:44.579Z,85.23
2023-04-28T22:23:15.186Z,85.35
2023-04-28T22:25:45.929Z,86.05
2023-04-28T22:28:19.290Z,85.82
2023-04-28T22:30:51.507Z,85.83
2023-04-28T22:33:22.053Z,85.79
2023-04-28T22:35:52.973Z,86.22
2023-04-28T22:38:23.618Z,86.95
2023-04-28T22:40:54.207Z,87.41
2023-04-28T22:43:24.841Z,86.97
2023-04-28T22:45:57.115Z,87.47
2023-04-28T22:48:30.850Z,87.81
2023-04-28T22:51:01.981Z,87.43
2023-04-28T22:53:32.479Z,87.44
2023-04-28T22:56:03.961Z,88.17
2023-04-28T22:58:34.680Z,88.26
2023-04-28T23:01:06.765Z,88.96
2023-04-28T23:03:39.394Z,89.05
2023-04-28T23:06:10.312Z,89.59
2023-04-28T23:08:40.793Z,89.87
2023-04-28T23:11:11.641Z,90.88
2023-04-28T23:13:42.222Z,91.04
2023-04-28T23:16:14.719Z,91.57
2023-04-28T23:18:45.488Z,92.25
2023-04-28T23:21:15.969Z,92.06
2023-04-28T23:23:47.056Z,92.69
2023-04-28T23:26:17.700Z,92.50
2023-04-28T23:28:48.996Z,92.67
2023-04-28T23:31:21.441Z,93.04
2023-04-28T23:33:51.949Z,93.10
2023-04-28T23:36:22.460Z,93.38
2023-04-28T23:38:52.985Z,93.71
2023-04-28T23:41:23.693Z,93.65
2023-04-28T23:43:54.310Z,93.24
2023-04-28T23:46:26.529Z,92.93
2023-04-28T23:48:57.618Z,92.81
2023-04-28T23:51:28.362Z,92.94
2023-04-28T23:54:02.879Z,93.10
2023-04-28T23:56:35.127Z,93.78
2023-04-28T23:59:06.474Z,93.28
